Time;durP1;ratioP1;P1;durP2;ratioP2;P2;SDS_P1;SDS_P2;PMS_P1;PMS_P2;Temp;Humidity;BMP_temperature;BMP_pressure;BME280_temperature;BME280_humidity;BME280_pressure;Samples;Min_cycle;Max_cycle;Signal;HPM_P1;HPM_P2
2023/03/13 00:00:56;;;;;;;;;;;;;;;16.11;46.74;93010.38;5028737;28;20004;-89
2023/03/13 00:03:21;;;;;;;;;;;;;;;16.10;47.36;92992.53;5035402;28;19931;-89
2023/03/13 00:05:46;;;;;;;;;;;;;;;16.13;46.47;92991.50;5030767;28;20361;-88
2023/03/13 00:08:12;;;;;;;;;;;;;;;16.15;46.85;92991.75;5039566;28;20409;-88
2023/03/13 00:10:37;;;;;;;;;;;;;;;16.13;46.80;92990.78;5032238;28;19935;-88
2023/03/13 00:13:03;;;;;;;;;;;;;;;16.10;47.03;92984.34;5028008;28;20038;-88
2023/03/13 00:15:28;;;;;;;;;;;;;;;16.08;47.43;92995.75;5047670;28;20291;-89
2023/03/13 00:17:53;;;;;;;;;;;;;;;16.11;47.34;92992.03;5030735;28;20038;-88
2023/03/13 00:20:18;;;;;;;;;;;;;;;16.08;47.65;92990.28;5031380;28;20213;-88
2023/03/13 00:22:44;;;;;;;;;;;;;;;16.07;47.51;92988.06;5047711;28;19932;-88
2023/03/13 00:25:09;;;;;;;;;;;;;;;16.05;47.51;92980.41;5047863;28;20302;-88
2023/03/13 00:27:34;;;;;;;;;;;;;;;16.05;47.22;92974.94;5040020;28;20368;-89
2023/03/13 00:29:59;;;;;;;;;;;;;;;16.07;47.38;92977.16;5031766;28;19935;-88
2023/03/13 00:32:25;;;;;;;;;;;;;;;16.09;47.12;92969.97;5047151;28;19924;-89
2023/03/13 00:34:50;;;;;;;;;;;;;;;16.11;47.04;92970.19;5048666;28;19925;-88
2023/03/13 00:37:15;;;;;;;;;;;;;;;16.12;47.27;92957.31;5047229;28;19924;-89
2023/03/13 00:39:40;;;;;;;;;;;;;;;16.11;47.63;92962.03;5039291;28;19929;-88
2023/03/13 00:42:06;;;;;;;;;;;;;;;16.10;47.06;92962.53;5047460;28;20299;-88
2023/03/13 00:44:32;;;;;;;;;;;;;;;16.08;46.95;92952.13;5047820;28;20410;-88
2023/03/13 00:46:57;;;;;;;;;;;;;;;16.07;47.30;92958.81;5048286;28;19921;-89
2023/03/13 00:49:22;;;;;;;;;;;;;;;16.06;47.29;92945.69;5046426;28;20356;-88
2023/03/13 00:51:48;;;;;;;;;;;;;;;16.08;46.89;92945.94;5044505;28;19993;-89
2023/03/13 00:54:13;;;;;;;;;;;;;;;16.09;47.22;92950.88;5065973;28;19928;-89
2023/03/13 00:56:38;;;;;;;;;;;;;;;16.09;47.42;92941.97;5066110;28;19924;-88
2023/03/13 00:59:03;;;;;;;;;;;;;;;16.08;47.41;92945.94;5048574;28;19951;-89
2023/03/13 01:01:33;;;;;;;;;;;;;;;16.06;47.52;92926.59;5030871;28;20513;-89
2023/03/13 01:03:59;;;;;;;;;;;;;;;16.07;47.29;92930.81;5035583;28;19928;-89
2023/03/13 01:06:25;;;;;;;;;;;;;;;16.06;48.00;92926.59;5049958;28;20405;-88
2023/03/13 01:08:51;;;;;;;;;;;;;;;16.06;47.53;92924.63;5044233;28;19936;-88
2023/03/13 01:11:18;;;;;;;;;;;;;;;16.07;47.66;92920.66;5033925;28;19928;-89
2023/03/13 01:13:44;;;;;;;;;;;;;;;16.05;47.54;92923.16;5034835;28;19939;-89
2023/03/13 01:16:13;;;;;;;;;;;;;;;16.06;47.69;92911.00;5033021;28;19921;-89
2023/03/13 01:18:39;;;;;;;;;;;;;;;16.07;47.68;92912.47;5031655;28;19931;-88
2023/03/13 01:21:04;;;;;;;;;;;;;;;16.06;47.44;92911.00;5030519;28;20045;-88
2023/03/13 01:23:29;;;;;;;;;;;;;;;16.05;47.58;92912.25;5039920;28;19932;-89
2023/03/13 01:25:55;;;;;;;;;;;;;;;16.03;47.27;92909.28;5051405;28;19931;-88
2023/03/13 01:28:20;;;;;;;;;;;;;;;16.01;48.42;92908.34;5045056;28;20374;-88
2023/03/13 01:30:45;;;;;;;;;;;;;;;16.03;47.64;92908.53;5050926;28;19955;-88
2023/03/13 01:33:11;;;;;;;;;;;;;;;16.02;47.43;92901.63;5034328;28;19925;-88
2023/03/13 01:35:36;;;;;;;;;;;;;;;16.02;47.47;92905.06;5043414;28;19944;-88
2023/03/13 01:38:01;;;;;;;;;;;;;;;16.04;47.07;92904.56;5050528;28;19964;-88
2023/03/13 01:40:26;;;;;;;;;;;;;;;16.06;47.63;92900.09;5023026;28;19921;-89
2023/03/13 01:42:52;;;;;;;;;;;;;;;16.07;47.93;92892.66;5050859;28;20336;-87
2023/03/13 01:45:36;;;;;;;;;;;;;;;16.07;47.75;92895.38;5050187;28;20015;-88
2023/03/13 01:48:03;;;;;;;;;;;;;;;16.08;47.31;92894.88;5055959;28;19924;-88
2023/03/13 01:50:28;;;;;;;;;;;;;;;16.06;47.86;92893.91;5028954;28;20303;-89
2023/03/13 01:52:53;;;;;;;;;;;;;;;16.06;47.79;92889.19;5023380;28;19928;-88
2023/03/13 01:55:18;;;;;;;;;;;;;;;16.05;47.39;92884.97;5046246;28;20276;-89
2023/03/13 01:57:45;;;;;;;;;;;;;;;16.05;47.44;92876.06;5048359;28;19932;-88
2023/03/13 02:00:15;;;;;;;;;;;;;;;16.06;46.98;92880.25;5050100;28;19931;-89
2023/03/13 02:02:41;;;;;;;;;;;;;;;16.06;47.78;92878.28;5046561;28;20058;-87
2023/03/13 02:05:07;;;;;;;;;;;;;;;16.06;47.52;92883.00;5044457;28;19951;-88
2023/03/13 02:07:33;;;;;;;;;;;;;;;16.06;47.75;92883.72;5025857;28;20433;-89
2023/03/13 02:09:59;;;;;;;;;;;;;;;16.05;47.72;92879.53;5032802;28;19993;-88
2023/03/13 02:12:31;;;;;;;;;;;;;;;16.04;48.04;92869.13;5032736;28;20374;-88
2023/03/13 02:14:56;;;;;;;;;;;;;;;16.05;47.51;92871.34;5028136;28;19925;-89
2023/03/13 02:17:24;;;;;;;;;;;;;;;16.07;47.56;92870.84;5043618;28;19986;-88
2023/03/13 02:19:52;;;;;;;;;;;;;;;16.08;47.78;92877.78;5033079;28;19921;-88
2023/03/13 02:22:21;;;;;;;;;;;;;;;16.10;47.01;92875.28;5050322;28;20401;-88
2023/03/13 02:25:05;;;;;;;;;;;;;;;16.11;47.45;92872.03;5034561;28;19920;-89
2023/03/13 02:27:30;;;;;;;;;;;;;;;16.11;47.32;92869.31;5035909;28;19933;-89
2023/03/13 02:29:56;;;;;;;;;;;;;;;16.11;47.75;92868.56;5031881;28;20677;-88
2023/03/13 02:32:24;;;;;;;;;;;;;;;16.08;47.79;92867.59;5049447;28;20130;-88
2023/03/13 02:34:51;;;;;;;;;;;;;;;16.07;47.63;92874.31;5051089;28;19929;-88
2023/03/13 02:37:16;;;;;;;;;;;;;;;16.06;47.26;92877.53;5049815;28;20417;-88
2023/03/13 02:39:42;;;;;;;;;;;;;;;16.06;47.51;92874.81;5040320;28;19925;-88
2023/03/13 02:42:07;;;;;;;;;;;;;;;16.07;47.95;92881.75;5032821;28;20367;-87
2023/03/13 02:44:36;;;;;;;;;;;;;;;16.06;47.44;92886.44;5047450;28;19924;-89
2023/03/13 02:47:02;;;;;;;;;;;;;;;16.05;47.72;92878.78;5020689;28;20352;-89
2023/03/13 02:49:27;;;;;;;;;;;;;;;16.04;47.84;92885.47;5028619;28;19978;-89
2023/03/13 02:51:53;;;;;;;;;;;;;;;16.02;47.99;92886.00;5032171;28;20303;-88
2023/03/13 02:54:21;;;;;;;;;;;;;;;16.04;47.50;92882.75;5048565;28;20023;-88
2023/03/13 02:56:47;;;;;;;;;;;;;;;16.06;47.46;92883.00;5039561;28;19971;-88
2023/03/13 02:59:13;;;;;;;;;;;;;;;16.05;47.12;92882.25;5047337;28;19928;-88
2023/03/13 03:01:38;;;;;;;;;;;;;;;16.05;47.29;92886.97;5022637;28;19954;-89
2023/03/13 03:04:03;;;;;;;;;;;;;;;16.06;47.86;92891.91;5046737;28;19924;-88
2023/03/13 03:06:28;;;;;;;;;;;;;;;16.03;47.70;92887.47;5040036;28;19954;-89
2023/03/13 03:08:54;;;;;;;;;;;;;;;16.01;47.60;92889.97;5041653;28;19956;-88
2023/03/13 03:11:19;;;;;;;;;;;;;;;16.03;47.67;92890.19;5043157;28;20290;-89
2023/03/13 03:13:44;;;;;;;;;;;;;;;16.02;47.81;92901.63;5049132;28;19988;-89
2023/03/13 03:16:10;;;;;;;;;;;;;;;16.01;47.85;92906.34;5021518;28;19929;-88
2023/03/13 03:18:36;;;;;;;;;;;;;;;16.02;47.69;92904.34;5032368;28;19928;-89
2023/03/13 03:21:03;;;;;;;;;;;;;;;16.02;47.82;92901.63;5031538;28;19928;-88
2023/03/13 03:23:29;;;;;;;;;;;;;;;16.00;48.04;92913.03;5026740;28;19932;-88
2023/03/13 03:25:54;;;;;;;;;;;;;;;15.99;47.53;92905.38;5045014;28;20283;-88
2023/03/13 03:28:19;;;;;;;;;;;;;;;16.01;47.45;92900.16;5028298;28;19933;-88
2023/03/13 03:30:44;;;;;;;;;;;;;;;16.02;48.13;92901.63;5032086;28;20019;-88
2023/03/13 03:33:10;;;;;;;;;;;;;;;16.02;47.73;92901.63;5032247;28;19937;-89
2023/03/13 03:35:37;;;;;;;;;;;;;;;16.02;47.49;92905.06;5032690;28;20133;-89
2023/03/13 03:38:02;;;;;;;;;;;;;;;16.02;47.24;92909.81;5028224;28;19924;-88
2023/03/13 03:40:29;;;;;;;;;;;;;;;16.02;47.85;92896.88;5030262;28;20344;-88
2023/03/13 03:42:54;;;;;;;;;;;;;;;16.01;47.81;92892.72;5049395;28;19924;-88
2023/03/13 03:45:19;;;;;;;;;;;;;;;16.02;47.81;92905.06;5031281;28;19935;-89
2023/03/13 03:47:45;;;;;;;;;;;;;;;16.00;48.08;92891.22;5066500;28;19924;-88
2023/03/13 03:50:11;;;;;;;;;;;;;;;15.99;47.94;92894.47;5031151;28;20069;-88
2023/03/13 03:52:36;;;;;;;;;;;;;;;16.00;48.01;92890.50;5036478;28;20446;-88
2023/03/13 03:55:01;;;;;;;;;;;;;;;16.00;48.00;92895.94;5047162;28;19924;-88
2023/03/13 03:57:27;;;;;;;;;;;;;;;16.00;48.06;92891.22;5064073;28;20318;-88
2023/03/13 03:59:52;;;;;;;;;;;;;;;16.02;48.15;92879.81;5048649;28;20248;-88
2023/03/13 04:02:17;;;;;;;;;;;;;;;16.01;47.63;92895.44;5064672;28;19935;-88
2023/03/13 04:04:42;;;;;;;;;;;;;;;16.01;47.73;92894.69;5038208;28;20314;-89
2023/03/13 04:07:08;;;;;;;;;;;;;;;16.02;47.68;92891.44;5047008;28;19992;-88
2023/03/13 04:09:33;;;;;;;;;;;;;;;16.00;47.69;92882.31;5048209;28;19970;-89
2023/03/13 04:11:58;;;;;;;;;;;;;;;15.99;47.73;92876.13;5065724;28;20465;-89
2023/03/13 04:14:23;;;;;;;;;;;;;;;16.02;47.43;92885.28;5031201;28;20016;-88
2023/03/13 04:16:49;;;;;;;;;;;;;;;16.02;48.32;92888.00;5021274;28;19963;-88
2023/03/13 04:19:14;;;;;;;;;;;;;;;16.03;47.80;92882.00;5066026;28;19929;-88
2023/03/13 04:21:39;;;;;;;;;;;;;;;16.05;47.64;92895.13;5027456;28;19929;-88
2023/03/13 04:24:04;;;;;;;;;;;;;;;16.02;47.67;92877.81;5042190;28;20350;-88
2023/03/13 04:26:30;;;;;;;;;;;;;;;16.02;47.81;92882.53;5038715;28;19940;-88
2023/03/13 04:28:55;;;;;;;;;;;;;;;16.07;47.50;92881.75;5039637;28;19935;-89
2023/03/13 04:31:22;;;;;;;;;;;;;;;16.07;47.57;92885.22;5047494;28;19932;-89
2023/03/13 04:33:47;;;;;;;;;;;;;;;16.05;47.56;92873.34;5048966;28;20395;-89
2023/03/13 04:36:12;;;;;;;;;;;;;;;16.01;47.96;92884.53;5022630;28;19968;-89
2023/03/13 04:38:38;;;;;;;;;;;;;;;16.01;47.80;92883.78;5063300;28;19932;-88
2023/03/13 04:41:03;;;;;;;;;;;;;;;16.00;48.16;92871.41;5025408;28;19924;-88
2023/03/13 04:43:28;;;;;;;;;;;;;;;16.01;47.52;92879.09;5031523;28;20019;-87
2023/03/13 04:45:53;;;;;;;;;;;;;;;16.03;47.88;92873.09;5026508;28;19935;-87
2023/03/13 04:48:19;;;;;;;;;;;;;;;16.03;46.99;92873.09;5031298;28;19932;-88
2023/03/13 04:50:44;;;;;;;;;;;;;;;16.06;47.38;92863.91;5047967;28;19925;-88
2023/03/13 04:53:09;;;;;;;;;;;;;;;16.05;47.24;92862.44;5046313;28;19932;-87
2023/03/13 04:55:35;;;;;;;;;;;;;;;16.00;47.56;92861.25;5033827;28;19920;-86
2023/03/13 04:58:00;;;;;;;;;;;;;;;15.97;48.26;92864.97;5032081;28;19925;-86
2023/03/13 05:00:25;;;;;;;;;;;;;;;15.97;47.78;92864.25;5060102;28;19928;-87
2023/03/13 05:02:50;;;;;;;;;;;;;;;15.96;48.26;92868.97;5051348;28;19924;-87
2023/03/13 05:05:16;;;;;;;;;;;;;;;15.95;47.84;92878.38;5068198;28;19925;-88
2023/03/13 05:07:41;;;;;;;;;;;;;;;15.96;47.90;92874.41;5031120;28;20348;-89
2023/03/13 05:10:06;;;;;;;;;;;;;;;15.96;46.46;92874.41;5061205;28;19925;-88
2023/03/13 05:12:31;;;;;;;;;;;;;;;15.98;46.47;92874.63;5039490;28;19952;-88
2023/03/13 05:14:57;;;;;;;;;;;;;;;15.92;45.39;92879.38;5033133;28;19951;-87
2023/03/13 05:17:22;;;;;;;;;;;;;;;15.86;46.40;92875.97;5067448;28;19932;-88
2023/03/13 05:19:48;;;;;;;;;;;;;;;15.84;47.22;92886.63;5050663;28;20430;-88
2023/03/13 05:22:13;;;;;;;;;;;;;;;15.82;44.89;92883.66;5050068;28;19924;-87
2023/03/13 05:24:38;;;;;;;;;;;;;;;15.83;44.76;92878.94;5067540;28;19928;-89
2023/03/13 05:27:03;;;;;;;;;;;;;;;15.86;45.24;92878.69;5023821;28;20291;-87
2023/03/13 05:29:29;;;;;;;;;;;;;;;15.84;44.96;92875.72;5039107;28;20225;-88
2023/03/13 05:31:54;;;;;;;;;;;;;;;15.87;45.76;92884.88;5048483;28;19935;-89
2023/03/13 05:34:19;;;;;;;;;;;;;;;15.90;45.30;92875.69;5053793;28;19936;-87
2023/03/13 05:36:44;;;;;;;;;;;;;;;15.95;46.11;92872.94;5054114;28;19937;-86
2023/03/13 05:39:12;;;;;;;;;;;;;;;16.01;46.06;92870.91;5051957;28;19936;-87
2023/03/13 05:41:38;;;;;;;;;;;;;;;16.05;46.44;92870.59;5052456;28;19989;-90
2023/03/13 05:44:05;;;;;;;;;;;;;;;16.09;46.26;92880.00;5022774;28;19932;-88
2023/03/13 05:46:31;;;;;;;;;;;;;;;16.11;45.99;92876.75;5041807;28;19928;-87
2023/03/13 05:48:56;;;;;;;;;;;;;;;16.09;45.37;92871.81;5033084;28;20336;-88
2023/03/13 05:51:22;;;;;;;;;;;;;;;16.06;45.47;92875.56;5030354;28;20948;-88
2023/03/13 05:53:47;;;;;;;;;;;;;;;16.04;45.69;92875.31;5026033;28;19935;-86
2023/03/13 05:56:13;;;;;;;;;;;;;;;16.04;45.28;92866.41;5062540;28;19935;-87
2023/03/13 05:58:38;;;;;;;;;;;;;;;16.02;45.22;92858.72;5042736;28;19953;-87
2023/03/13 06:01:07;;;;;;;;;;;;;;;16.01;46.51;92865.44;5037237;28;20278;-87
2023/03/13 06:03:32;;;;;;;;;;;;;;;16.06;46.55;92869.34;5043068;28;20379;-86
2023/03/13 06:05:58;;;;;;;;;;;;;;;16.07;46.20;92868.84;5030614;28;19928;-86
2023/03/13 06:08:23;;;;;;;;;;;;;;;16.08;45.97;92853.22;5019699;28;20688;-89
2023/03/13 06:10:48;;;;;;;;;;;;;;;16.02;44.74;92850.53;5045972;28;20426;-87
2023/03/13 06:13:15;;;;;;;;;;;;;;;15.98;45.26;92861.00;5032585;28;19990;-89
2023/03/13 06:15:40;;;;;;;;;;;;;;;15.98;46.32;92852.84;5043478;28;19925;-89
2023/03/13 06:18:05;;;;;;;;;;;;;;;16.00;44.93;92850.34;5042037;28;20530;-86
2023/03/13 06:20:30;;;;;;;;;;;;;;;16.05;44.98;92837.88;5018133;28;19929;-88
2023/03/13 06:22:56;;;;;;;;;;;;;;;16.05;46.25;92846.81;5029021;28;19929;-87
2023/03/13 06:25:21;;;;;;;;;;;;;;;16.05;46.37;92838.63;5036553;28;19940;-88
2023/03/13 06:27:46;;;;;;;;;;;;;;;16.05;45.47;92843.34;5036168;28;19939;-87
2023/03/13 06:30:12;;;;;;;;;;;;;;;16.08;45.66;92826.72;5036210;28;19931;-87
2023/03/13 06:32:39;;;;;;;;;;;;;;;16.06;45.53;92831.94;5028516;28;19933;-88
2023/03/13 06:35:05;;;;;;;;;;;;;;;16.09;45.58;92836.38;5043281;28;19992;-88
2023/03/13 06:37:30;;;;;;;;;;;;;;;16.10;45.28;92828.94;5040827;28;20023;-86
2023/03/13 06:39:56;;;;;;;;;;;;;;;16.09;45.17;92841.81;5038729;28;19978;-90
2023/03/13 06:42:21;;;;;;;;;;;;;;;16.11;44.86;92838.59;5042754;28;19971;-88
2023/03/13 06:44:46;;;;;;;;;;;;;;;16.09;44.86;92827.44;5040232;28;19967;-87
2023/03/13 06:47:12;;;;;;;;;;;;;;;16.11;44.93;92828.41;5039673;28;20019;-91
2023/03/13 06:49:37;;;;;;;;;;;;;;;16.12;45.07;92820.97;5019653;28;19928;-90
2023/03/13 06:52:02;;;;;;;;;;;;;;;16.17;45.82;92814.00;5009704;28;20626;-87
2023/03/13 06:54:28;;;;;;;;;;;;;;;16.17;45.28;92814.00;5013869;28;19925;-87
2023/03/13 06:56:53;;;;;;;;;;;;;;;16.16;45.45;92817.97;5009451;28;19925;-87
2023/03/13 06:59:18;;;;;;;;;;;;;;;16.16;45.42;92823.44;5027285;28;19931;-89
2023/03/13 07:01:44;;;;;;;;;;;;;;;16.18;45.82;92829.84;5007515;28;19944;-88
2023/03/13 07:04:10;;;;;;;;;;;;;;;16.17;45.78;92833.09;5041802;28;19941;-87
2023/03/13 07:06:36;;;;;;;;;;;;;;;16.21;45.52;92825.38;5028226;28;19929;-87
2023/03/13 07:09:03;;;;;;;;;;;;;;;16.23;46.34;92807.25;5039284;28;21320;-87
2023/03/13 07:11:29;;;;;;;;;;;;;;;16.27;46.10;92794.06;5010004;28;19943;-86
2023/03/13 07:13:55;;;;;;;;;;;;;;;16.24;46.03;92808.69;5045430;28;19933;-89
2023/03/13 07:16:20;;;;;;;;;;;;;;;16.26;45.93;92791.84;5025382;28;19964;-84
2023/03/13 07:18:45;;;;;;;;;;;;;;;16.29;45.81;92804.44;5033858;28;19979;-85
2023/03/13 07:21:11;;;;;;;;;;;;;;;16.32;45.82;92789.78;5031388;28;19924;-85
2023/03/13 07:23:36;;;;;;;;;;;;;;;16.36;45.62;92798.44;5029901;28;19932;-85
2023/03/13 07:26:02;;;;;;;;;;;;;;;16.37;46.22;92797.19;5023731;28;20293;-87
2023/03/13 07:28:29;;;;;;;;;;;;;;;16.34;45.24;92787.28;5037867;28;19921;-87
2023/03/13 07:30:54;;;;;;;;;;;;;;;16.35;45.94;92803.16;5031146;28;19925;-87
2023/03/13 07:33:20;;;;;;;;;;;;;;;16.33;46.53;92813.09;5040838;28;19939;-89
2023/03/13 07:35:49;;;;;;;;;;;;;;;16.32;45.49;92811.63;5046427;28;19928;-91
2023/03/13 07:38:14;;;;;;;;;;;;;;;16.29;46.62;92807.91;5024543;28;19933;-93
2023/03/13 07:40:39;;;;;;;;;;;;;;;16.28;46.45;92795.53;5033488;28;19935;-88
2023/03/13 07:43:06;;;;;;;;;;;;;;;16.29;45.63;92791.56;5020241;28;20043;-88
2023/03/13 07:45:31;;;;;;;;;;;;;;;16.30;45.61;92784.84;5029441;28;19924;-87
2023/03/13 07:47:56;;;;;;;;;;;;;;;16.31;45.75;92786.31;5045887;28;19967;-88
2023/03/13 07:50:21;;;;;;;;;;;;;;;16.33;45.85;92764.72;5044122;28;19932;-89
2023/03/13 07:52:47;;;;;;;;;;;;;;;16.33;45.32;92740.19;5047066;28;19961;-88
2023/03/13 07:55:13;;;;;;;;;;;;;;;16.28;45.54;92748.44;5029704;28;20103;-91
2023/03/13 07:57:38;;;;;;;;;;;;;;;16.28;45.06;92770.97;5041143;28;19925;-88
2023/03/13 08:00:08;;;;;;;;;;;;;;;16.28;44.69;92760.06;5038999;28;19974;-85
2023/03/13 08:02:33;;;;;;;;;;;;;;;16.30;45.00;92767.75;5029573;28;19925;-89
2023/03/13 08:04:58;;;;;;;;;;;;;;;16.32;44.82;92778.88;5027631;28;20371;-89
2023/03/13 08:07:24;;;;;;;;;;;;;;;16.31;45.83;92786.31;5021734;28;19932;-87
2023/03/13 08:09:49;;;;;;;;;;;;;;;16.31;45.69;92788.31;5046618;28;19962;-87
2023/03/13 08:12:14;;;;;;;;;;;;;;;16.32;45.44;92804.16;5029340;28;20123;-89
2023/03/13 08:14:40;;;;;;;;;;;;;;;16.35;45.45;92805.88;5030534;28;21423;-89
2023/03/13 08:17:05;;;;;;;;;;;;;;;16.37;45.67;92806.09;5028594;28;20007;-89
2023/03/13 08:19:30;;;;;;;;;;;;;;;16.39;45.91;92806.34;5025462;28;19924;-90
2023/03/13 08:21:56;;;;;;;;;;;;;;;16.40;45.51;92791.44;5030941;28;19982;-88
2023/03/13 08:24:21;;;;;;;;;;;;;;;16.42;45.28;92778.03;5022856;28;20398;-92
2023/03/13 08:26:46;;;;;;;;;;;;;;;16.43;45.75;92767.88;5022095;28;19929;-90
2023/03/13 08:29:12;;;;;;;;;;;;;;;16.41;46.07;92762.91;5022854;28;19947;-91
2023/03/13 08:31:41;;;;;;;;;;;;;;;16.41;45.50;92756.72;5018330;28;19929;-89
2023/03/13 08:34:06;;;;;;;;;;;;;;;16.41;45.27;92759.44;5015311;28;19929;-89
2023/03/13 08:36:32;;;;;;;;;;;;;;;16.41;45.17;92776.56;5044831;28;19987;-87
2023/03/13 08:38:59;;;;;;;;;;;;;;;16.42;46.02;92769.84;5030390;28;20225;-91
2023/03/13 08:41:27;;;;;;;;;;;;;;;16.41;46.12;92768.38;5031338;28;19929;-91
2023/03/13 08:43:52;;;;;;;;;;;;;;;16.40;45.87;92769.63;5029669;28;19925;-92
2023/03/13 08:46:18;;;;;;;;;;;;;;;16.40;45.83;92763.44;5015587;28;20345;-92
2023/03/13 08:48:43;;;;;;;;;;;;;;;16.37;45.49;92783.53;5024945;28;20384;-89
2023/03/13 08:51:09;;;;;;;;;;;;;;;16.37;45.64;92775.38;5039827;28;19925;-87
2023/03/13 08:53:35;;;;;;;;;;;;;;;16.38;45.38;92783.03;5040459;28;19983;-89
2023/03/13 08:56:00;;;;;;;;;;;;;;;16.38;46.01;92783.03;5030144;28;19936;-86
2023/03/13 08:58:25;;;;;;;;;;;;;;;16.41;46.01;92789.47;5059535;28;20011;-90
2023/03/13 09:00:51;;;;;;;;;;;;;;;16.41;45.92;92792.94;5046204;28;19982;-91
2023/03/13 09:03:16;;;;;;;;;;;;;;;16.44;45.24;92781.00;5028808;28;19925;-89
2023/03/13 09:05:44;;;;;;;;;;;;;;;16.45;45.40;92790.63;5040912;28;19929;-91
2023/03/13 09:08:11;;;;;;;;;;;;;;;16.46;45.97;92785.91;5055206;28;19943;-89
2023/03/13 09:10:36;;;;;;;;;;;;;;;16.45;46.40;92771.53;5037998;28;19929;-88
2023/03/13 09:13:04;;;;;;;;;;;;;;;16.45;45.32;92757.19;5046271;28;19943;-90
2023/03/13 09:15:30;;;;;;;;;;;;;;;16.47;45.23;92743.75;5023014;28;19929;-93
2023/03/13 09:17:55;;;;;;;;;;;;;;;16.48;45.05;92756.13;5006619;28;19936;-87
2023/03/13 09:20:21;;;;;;;;;;;;;;;16.43;45.05;92763.16;5023392;28;19924;-92
2023/03/13 09:22:47;;;;;;;;;;;;;;;16.42;45.01;92758.94;5030846;28;21658;-90
2023/03/13 09:25:12;;;;;;;;;;;;;;;16.41;44.98;92757.47;5042940;28;20382;-89
2023/03/13 09:27:38;;;;;;;;;;;;;;;16.39;44.93;92756.50;5024992;28;19959;-91
2023/03/13 09:30:04;;;;;;;;;;;;;;;16.35;44.84;92748.59;5028597;28;20295;-88
2023/03/13 09:32:29;;;;;;;;;;;;;;;16.31;44.92;92739.22;5033616;28;20303;-87
2023/03/13 09:34:55;;;;;;;;;;;;;;;16.30;44.60;92735.00;5049792;28;19952;-88
2023/03/13 09:37:20;;;;;;;;;;;;;;;16.28;44.83;92732.81;5043123;28;19932;-87
2023/03/13 09:39:46;;;;;;;;;;;;;;;16.29;45.32;92728.81;5053898;28;19929;-89
2023/03/13 09:42:17;;;;;;;;;;;;;;;16.29;45.42;92734.28;5022630;28;19921;-88
2023/03/13 09:44:56;;;;;;;;;;;;;;;16.29;45.29;92736.25;5049376;28;19928;-92
2023/03/13 09:47:25;;;;;;;;;;;;;;;16.31;45.82;92731.78;5047847;28;19946;-89
2023/03/13 09:49:53;;;;;;;;;;;;;;;16.32;45.27;92727.81;5036540;28;19933;-90
2023/03/13 09:52:24;;;;;;;;;;;;;;;16.34;45.16;92730.00;5049094;28;19932;-89
2023/03/13 09:55:00;;;;;;;;;;;;;;;16.36;45.19;92722.81;5019014;28;19925;-90
2023/03/13 09:57:27;;;;;;;;;;;;;;;16.40;45.68;92722.50;5029592;28;19952;-88
2023/03/13 10:00:13;;;;;;;;;;;;;;;16.40;46.01;92717.06;5031460;28;19929;-89
2023/03/13 10:02:38;;;;;;;;;;;;;;;16.41;45.75;92710.34;5073357;28;19924;-89
2023/03/13 10:05:04;;;;;;;;;;;;;;;16.43;46.26;92705.13;5049825;28;19947;-89
2023/03/13 10:07:31;;;;;;;;;;;;;;;16.45;45.59;92708.06;5049471;28;19928;-88
2023/03/13 10:09:57;;;;;;;;;;;;;;;16.43;45.24;92697.69;5055335;28;19929;-89
2023/03/13 10:12:23;;;;;;;;;;;;;;;16.46;46.08;92687.69;5040214;28;19939;-88
2023/03/13 10:15:07;;;;;;;;;;;;;;;16.48;45.58;92684.47;5034902;28;19925;-89
2023/03/13 10:17:39;;;;;;;;;;;;;;;16.47;46.27;92683.72;5060047;28;19932;-88
2023/03/13 10:20:13;;;;;;;;;;;;;;;16.50;45.39;92673.78;5055281;28;19939;-88
2023/03/13 10:22:39;;;;;;;;;;;;;;;16.51;45.88;92681.44;5057104;28;19928;-89
2023/03/13 10:25:08;;;;;;;;;;;;;;;16.49;45.82;92686.69;5038334;28;20132;-89
2023/03/13 10:27:42;;;;;;;;;;;;;;;16.48;45.13;92690.66;5031607;28;19955;-90
2023/03/13 10:30:16;;;;;;;;;;;;;;;16.45;44.96;92697.88;5027876;28;19939;-90
2023/03/13 10:32:41;;;;;;;;;;;;;;;16.42;45.38;92692.72;5037518;28;19932;-89
2023/03/13 10:35:09;;;;;;;;;;;;;;;16.41;45.60;92685.81;5047383;28;19951;-91
2023/03/13 10:37:41;;;;;;;;;;;;;;;16.38;45.87;92679.38;5036418;28;19924;-90
2023/03/13 10:40:21;;;;;;;;;;;;;;;16.40;46.09;92687.06;5032094;28;19960;-90
2023/03/13 10:42:48;;;;;;;;;;;;;;;16.38;46.25;92682.09;5038488;28;19931;-88
2023/03/13 10:45:15;;;;;;;;;;;;;;;16.39;45.86;92691.78;5047674;28;19947;-88
2023/03/13 10:47:41;;;;;;;;;;;;;;;16.41;45.67;92692.00;5029925;28;20257;-89
2023/03/13 10:50:07;;;;;;;;;;;;;;;16.44;45.85;92684.78;5033747;28;19968;-89
2023/03/13 10:52:34;;;;;;;;;;;;;;;16.44;46.21;92665.69;5044366;28;19975;-91
2023/03/13 10:55:01;;;;;;;;;;;;;;;16.43;46.34;92673.13;5031435;28;19924;-89
2023/03/13 10:57:30;;;;;;;;;;;;;;;16.43;45.74;92672.38;5018731;28;19950;-89
2023/03/13 10:59:55;;;;;;;;;;;;;;;16.44;46.19;92674.59;5027693;28;20406;-88
2023/03/13 11:02:23;;;;;;;;;;;;;;;16.47;46.06;92681.00;5040116;28;19928;-89
2023/03/13 11:04:54;;;;;;;;;;;;;;;16.48;46.15;92677.00;5055044;28;20006;-89
2023/03/13 11:07:20;;;;;;;;;;;;;;;16.48;46.45;92676.28;5028626;28;19924;-90
2023/03/13 11:10:09;;;;;;;;;;;;;;;16.48;45.76;92657.91;5049812;28;19928;-87
2023/03/13 11:12:34;;;;;;;;;;;;;;;16.48;46.29;92652.47;5040483;28;19924;-88
2023/03/13 11:15:02;;;;;;;;;;;;;;;16.47;46.56;92645.53;5056682;28;20331;-91
2023/03/13 11:17:29;;;;;;;;;;;;;;;16.50;46.64;92641.03;5040216;28;19931;-89
2023/03/13 11:20:01;;;;;;;;;;;;;;;16.52;46.22;92643.97;5037041;28;19971;-89
2023/03/13 11:22:26;;;;;;;;;;;;;;;16.54;45.66;92644.22;5041292;28;19921;-89
2023/03/13 11:25:02;;;;;;;;;;;;;;;16.53;46.07;92643.47;5071021;28;20543;-89
2023/03/13 11:27:31;;;;;;;;;;;;;;;16.54;46.17;92641.47;5036677;28;19989;-89
2023/03/13 11:29:57;;;;;;;;;;;;;;;16.53;46.66;92635.28;5046920;28;19954;-90
2023/03/13 11:32:52;;;;;;;;;;;;;;;16.53;45.46;92637.28;5056025;28;20019;-93
2023/03/13 11:35:38;;;;;;;;;;;;;;;16.54;45.91;92636.03;4966066;28;19936;-89
2023/03/13 11:38:06;;;;;;;;;;;;;;;16.55;46.36;92626.59;4969645;28;19972;-88
2023/03/13 11:40:54;;;;;;;;;;;;;;;16.56;46.18;92620.63;4994345;28;19936;-88
2023/03/13 11:43:21;;;;;;;;;;;;;;;16.58;46.32;92631.00;4972789;28;19988;-89
2023/03/13 11:45:52;;;;;;;;;;;;;;;16.59;46.10;92624.31;4999894;28;20045;-87
2023/03/13 11:48:33;;;;;;;;;;;;;;;16.58;46.57;92618.09;4985548;28;19937;-88
2023/03/13 11:51:06;;;;;;;;;;;;;;;16.58;46.72;92618.09;4963322;28;19973;-88
2023/03/13 11:53:40;;;;;;;;;;;;;;;16.58;46.58;92622.81;4948013;28;19929;-89
2023/03/13 11:56:08;;;;;;;;;;;;;;;16.57;46.38;92616.63;4964946;28;19922;-88
2023/03/13 11:58:33;;;;;;;;;;;;;;;16.60;46.66;92609.41;4966523;28;19945;-93
2023/03/13 12:01:19;;;;;;;;;;;;;;;16.60;46.43;92614.84;4978122;28;20410;-88
2023/03/13 12:03:53;;;;;;;;;;;;;;;16.60;46.78;92607.41;4951187;28;19929;-88
2023/03/13 12:06:21;;;;;;;;;;;;;;;16.59;46.72;92607.94;4975097;28;19930;-89
2023/03/13 12:08:47;;;;;;;;;;;;;;;16.57;46.77;92605.72;4961160;28;19926;-89
2023/03/13 12:11:24;;;;;;;;;;;;;;;16.59;46.98;92597.00;4979742;28;19975;-89
2023/03/13 12:14:08;;;;;;;;;;;;;;;16.59;46.45;92592.28;5045753;28;20330;-90
2023/03/13 12:16:38;;;;;;;;;;;;;;;16.59;46.91;92586.09;5069560;28;19924;-89
2023/03/13 12:19:06;;;;;;;;;;;;;;;16.61;46.97;92589.06;5028071;28;20007;-92
2023/03/13 12:21:35;;;;;;;;;;;;;;;16.61;46.15;92583.59;5049937;28;19960;-91
2023/03/13 12:24:10;;;;;;;;;;;;;;;16.61;46.61;92581.59;5034544;28;20009;-89
2023/03/13 12:26:45;;;;;;;;;;;;;;;16.63;46.74;92576.41;5066287;28;19924;-88
2023/03/13 12:29:26;;;;;;;;;;;;;;;16.66;46.68;92577.34;5068733;28;19936;-89
2023/03/13 12:31:52;;;;;;;;;;;;;;;16.64;46.28;92577.13;5026318;28;20023;-88
2023/03/13 12:34:18;;;;;;;;;;;;;;;16.63;46.42;92568.22;5068125;28;19987;-88
2023/03/13 12:36:59;;;;;;;;;;;;;;;16.65;46.50;92571.16;5049161;28;19925;-89
2023/03/13 12:39:46;;;;;;;;;;;;;;;16.67;46.42;92551.53;5031826;28;20033;-89
2023/03/13 12:42:28;;;;;;;;;;;;;;;16.69;46.46;92563.38;5042101;28;19929;-87
2023/03/13 12:44:54;;;;;;;;;;;;;;;16.70;46.04;92556.66;5049593;28;19924;-87
2023/03/13 12:47:26;;;;;;;;;;;;;;;16.69;46.60;92555.19;5055088;28;19925;-88